Airfield :
LOGIN :

Register | Disclaimer

   EN    FR    IT 

 










Legend :    VFR   Marginal VFR   IFR   Intensive IFR   Very Intensive IFR
Visi :
Ceiling :
>= 8 km
>= 3000ft
5 to 8 km
1000 to 3000 ft
1500m to 5 km
500 to 1000 ft
800 to 1500m
200 to 500 ft
< 800m
< 200 ft
Symbols :   Thunderstorms  Fog  Heavy snow  Heavy precipitations  Wind > 20 kt
SIGMETs :     Misc.  Thunderstorms  Icing  Turbulence  Mountain Waves  Volcanic Ashes







- Airport Elevation : 267 ft


EGDR - Culdrose Navy

CURRENT METAR :
  • 141750Z 30031G42KT 6000 -SHRA SCT008 FEW014CB SCT016 07/04 Q0992 GRN TEMPO 2000 SHRAGS SCT006 YLO2

EXPIRED METARs :
  • 141650Z 27026G38KT 9999 -SHRA SCT008 FEW014CB 07/04 Q0992 GRN TEMPO 2000 SHRAGS SCT006 YLO2
  • 141550Z 27025G36KT 6000 -SHRA SCT008 FEW014CB 07/04 Q0993 GRN TEMPO 2000 SHRAGS SCT006 YLO2

TAF COR TAF EGDR
Valid from the 14 at 15:00 until the 15 at 00:00 UTC


141351Z 1415/1424 28025G35KT 9999 FEW030
TEMPO 1415/1424 6000 SHRA SCT010 BKN016TCU
PROB40
TEMPO 1415/1424 28030G50KT 2000 +SHRAGS SCT006 BKN014CB
PROB30
TEMPO 1415/1424 1500 TSRAGS SCT004 BKN006
No reported NOTAMs for that airfield.
2 SIGMETs reported for the London FIR (EGTT) :
 
Severe turbulence
EGTT SIGMET 05 VALID 141900/142300 EGRR
EGTT LONDON FIR SEV TURB FCST SW OF LINE N5000 W00149 - N5152 W00623 SFC/FL060 STNR WKN=
Severe turbulence
EGTT SIGMET 04 VALID 141500/141900 EGRR
EGTT LONDON FIR SEV TURB FCST SW OF LINE N5000 W00119 - N5219 W00533 SFC/FL060 STNR WKN=



MET'MAP, your aeronautical weather chart ! - Copyright ORBIFLY December 2007 - Disclaimer

ORBIFLY MET'MAP TEAM :

Programming & Development : Alexandra Zaïnal
Concept & Development : Baudouin d'Aumeries
Co-Development & Prog : Marc-Olivier Méhu
Technical & hardware support : Manuel Goepfert

Contact : metmap@orbifly.com




SOURCES & CREDITS :

   NOAA